TKJ4204 LTAC-LTDA
Flight info
| Callsign | TKJ4204 |
|---|---|
| Flight time | 0h 58m |
| Altitude | 33000 |
| Route | GOBIT UG8 MARTI UL614 GEM DCT MILBA |
| Aircraft | B738/M-SDE2E3FGHIRWXY/LB1 |
Departure
| Time | 2026-05-06 12:02 |
|---|---|
| Airport | Esenboğa International Airport (LTAC) |
Arrival
| Time | 2026-05-06 13:01 |
|---|---|
| Airport | Hatay Airport (LTDA) |
| Time | Latitude | Longitude | Altitude | Speed | Heading |
|---|---|---|---|---|---|
| 2026-05-06 11:32 | 40.11672 | 32.99286 | 3137 ft | 0 kts | 160° |
| 2026-05-06 11:48 | 40.11674 | 32.99285 | 3137 ft | 1 kts | 159° |
| 2026-05-06 11:48 | 40.11688 | 32.99283 | 3137 ft | 2 kts | 162° |
| 2026-05-06 11:48 | 40.11702 | 32.99275 | 3137 ft | 2 kts | 159° |
| 2026-05-06 11:49 | 40.11716 | 32.99269 | 3137 ft | 2 kts | 160° |
| 2026-05-06 11:49 | 40.11739 | 32.99238 | 3136 ft | 1 kts | 74° |
| 2026-05-06 11:50 | 40.11737 | 32.99231 | 3136 ft | 1 kts | 60° |
| 2026-05-06 11:50 | 40.11735 | 32.99227 | 3136 ft | 0 kts | 64° |
| 2026-05-06 11:52 | 40.11737 | 32.99231 | 3136 ft | 0 kts | 56° |
| 2026-05-06 11:52 | 40.11743 | 32.99231 | 3135 ft | 2 kts | 337° |
| 2026-05-06 11:52 | 40.11760 | 32.99203 | 3135 ft | 6 kts | 296° |
| 2026-05-06 11:52 | 40.11774 | 32.99131 | 3133 ft | 9 kts | 279° |
| 2026-05-06 11:53 | 40.11805 | 32.99051 | 3132 ft | 10 kts | 326° |
| 2026-05-06 11:53 | 40.11869 | 32.99064 | 3132 ft | 9 kts | 32° |
| 2026-05-06 11:53 | 40.11922 | 32.99113 | 3133 ft | 9 kts | 38° |
| 2026-05-06 11:53 | 40.11988 | 32.99177 | 3134 ft | 13 kts | 36° |
| 2026-05-06 11:54 | 40.12081 | 32.99266 | 3134 ft | 19 kts | 36° |
| 2026-05-06 11:54 | 40.12198 | 32.99376 | 3136 ft | 20 kts | 36° |
| 2026-05-06 11:54 | 40.12310 | 32.99483 | 3138 ft | 19 kts | 36° |
| 2026-05-06 11:54 | 40.12415 | 32.99584 | 3141 ft | 17 kts | 36° |
| 2026-05-06 11:55 | 40.12515 | 32.99677 | 3141 ft | 17 kts | 35° |
| 2026-05-06 11:55 | 40.12612 | 32.99775 | 3141 ft | 17 kts | 38° |
| 2026-05-06 11:55 | 40.12712 | 32.99865 | 3140 ft | 17 kts | 34° |
| 2026-05-06 11:55 | 40.12810 | 32.99958 | 3140 ft | 17 kts | 37° |
| 2026-05-06 11:56 | 40.12905 | 33.00051 | 3142 ft | 16 kts | 37° |
| 2026-05-06 11:56 | 40.12989 | 33.00131 | 3145 ft | 13 kts | 35° |
| 2026-05-06 11:56 | 40.13063 | 33.00199 | 3147 ft | 13 kts | 36° |
| 2026-05-06 11:56 | 40.13153 | 33.00285 | 3147 ft | 18 kts | 37° |
| 2026-05-06 11:57 | 40.13272 | 33.00399 | 3146 ft | 22 kts | 37° |
| 2026-05-06 11:57 | 40.13398 | 33.00522 | 3146 ft | 22 kts | 36° |
| 2026-05-06 11:57 | 40.13526 | 33.00643 | 3146 ft | 22 kts | 37° |
| 2026-05-06 11:57 | 40.13652 | 33.00763 | 3146 ft | 22 kts | 37° |
| 2026-05-06 11:58 | 40.13780 | 33.00883 | 3146 ft | 22 kts | 34° |
| 2026-05-06 11:58 | 40.13905 | 33.01004 | 3146 ft | 22 kts | 38° |
| 2026-05-06 11:58 | 40.14034 | 33.01074 | 3147 ft | 14 kts | 348° |
| 2026-05-06 11:58 | 40.14074 | 33.01047 | 3146 ft | 0 kts | 318° |
| 2026-05-06 12:00 | 40.14082 | 33.01037 | 3145 ft | 6 kts | 312° |
| 2026-05-06 12:00 | 40.14108 | 33.00938 | 3143 ft | 15 kts | 289° |
| 2026-05-06 12:00 | 40.14174 | 33.00820 | 3140 ft | 16 kts | 311° |
| 2026-05-06 12:01 | 40.14207 | 33.00692 | 3137 ft | 12 kts | 243° |
| 2026-05-06 12:01 | 40.14173 | 33.00649 | 3137 ft | 0 kts | 217° |
| 2026-05-06 12:01 | 40.13979 | 33.00460 | 3137 ft | 76 kts | 216° |
| 2026-05-06 12:02 | 40.13335 | 32.99846 | 3131 ft | 149 kts | 218° |
| 2026-05-06 12:02 | 40.12451 | 32.98970 | 3462 ft | 167 kts | 217° |
| 2026-05-06 12:02 | 40.11457 | 32.98059 | 4023 ft | 182 kts | 217° |
| 2026-05-06 12:02 | 40.10506 | 32.97116 | 5005 ft | 176 kts | 219° |
| 2026-05-06 12:03 | 40.09457 | 32.96088 | 5455 ft | 198 kts | 217° |
| 2026-05-06 12:03 | 40.08316 | 32.95003 | 6028 ft | 215 kts | 217° |
| 2026-05-06 12:03 | 40.07063 | 32.93829 | 6721 ft | 227 kts | 216° |
| 2026-05-06 12:03 | 40.05759 | 32.92616 | 7340 ft | 242 kts | 216° |
| 2026-05-06 12:04 | 40.04359 | 32.91284 | 8023 ft | 255 kts | 216° |
| 2026-05-06 12:04 | 40.02883 | 32.89989 | 8770 ft | 263 kts | 207° |
| 2026-05-06 12:04 | 40.01146 | 32.89293 | 9654 ft | 263 kts | 182° |
| 2026-05-06 12:04 | 39.99358 | 32.89566 | 10412 ft | 269 kts | 162° |
| 2026-05-06 12:05 | 39.97616 | 32.90617 | 10958 ft | 284 kts | 148° |
| 2026-05-06 12:05 | 39.95932 | 32.92071 | 11480 ft | 301 kts | 144° |
| 2026-05-06 12:05 | 39.94179 | 32.93685 | 12014 ft | 317 kts | 144° |
| 2026-05-06 12:05 | 39.92320 | 32.95399 | 12526 ft | 334 kts | 144° |
| 2026-05-06 12:06 | 39.90296 | 32.97023 | 12994 ft | 352 kts | 153° |
| 2026-05-06 12:06 | 39.87897 | 32.97955 | 13442 ft | 369 kts | 174° |
| 2026-05-06 12:06 | 39.85280 | 32.97975 | 13916 ft | 385 kts | 184° |
| 2026-05-06 12:06 | 39.82610 | 32.97736 | 14561 ft | 395 kts | 182° |
| 2026-05-06 12:07 | 39.79837 | 32.97983 | 15022 ft | 404 kts | 168° |
| 2026-05-06 12:07 | 39.77255 | 32.99378 | 15070 ft | 403 kts | 146° |
| 2026-05-06 12:07 | 39.75256 | 33.01885 | 15073 ft | 399 kts | 125° |
| 2026-05-06 12:07 | 39.73778 | 33.04938 | 15066 ft | 399 kts | 116° |
| 2026-05-06 12:08 | 39.72807 | 33.08249 | 15064 ft | 394 kts | 102° |
| 2026-05-06 12:08 | 39.72463 | 33.11773 | 15068 ft | 393 kts | 89° |
| 2026-05-06 12:08 | 39.72636 | 33.15323 | 15141 ft | 400 kts | 80° |
| 2026-05-06 12:08 | 39.73174 | 33.18824 | 16178 ft | 396 kts | 73° |
| 2026-05-06 12:09 | 39.74127 | 33.22149 | 17006 ft | 397 kts | 62° |
| 2026-05-06 12:09 | 39.75446 | 33.25260 | 17791 ft | 400 kts | 56° |
| 2026-05-06 12:09 | 39.76945 | 33.28305 | 18570 ft | 403 kts | 53° |
| 2026-05-06 12:09 | 39.78520 | 33.31364 | 19343 ft | 407 kts | 53° |
| 2026-05-06 12:10 | 39.80078 | 33.34426 | 20095 ft | 411 kts | 53° |
| 2026-05-06 12:10 | 39.81633 | 33.37564 | 20806 ft | 417 kts | 54° |
| 2026-05-06 12:10 | 39.83128 | 33.40752 | 21540 ft | 421 kts | 56° |
| 2026-05-06 12:10 | 39.84423 | 33.44189 | 22206 ft | 429 kts | 64° |
| 2026-05-06 12:11 | 39.85298 | 33.47956 | 22806 ft | 440 kts | 74° |
| 2026-05-06 12:11 | 39.85690 | 33.51931 | 23470 ft | 449 kts | 83° |
| 2026-05-06 12:11 | 39.85639 | 33.55970 | 24085 ft | 457 kts | 90° |
| 2026-05-06 12:11 | 39.85251 | 33.60086 | 24659 ft | 465 kts | 95° |
| 2026-05-06 12:12 | 39.84549 | 33.64228 | 25257 ft | 471 kts | 101° |
| 2026-05-06 12:12 | 39.83601 | 33.68292 | 25726 ft | 479 kts | 105° |
| 2026-05-06 12:12 | 39.82488 | 33.72406 | 26271 ft | 484 kts | 107° |
| 2026-05-06 12:12 | 39.81299 | 33.76535 | 26714 ft | 491 kts | 108° |
| 2026-05-06 12:13 | 39.80090 | 33.80648 | 27185 ft | 495 kts | 108° |
| 2026-05-06 12:13 | 39.78849 | 33.84859 | 27626 ft | 500 kts | 108° |
| 2026-05-06 12:13 | 39.77608 | 33.89108 | 28139 ft | 503 kts | 108° |
| 2026-05-06 12:13 | 39.76390 | 33.93298 | 28717 ft | 504 kts | 107° |
| 2026-05-06 12:14 | 39.75155 | 33.97559 | 29327 ft | 503 kts | 107° |
| 2026-05-06 12:14 | 39.73931 | 34.01806 | 29893 ft | 504 kts | 107° |
| 2026-05-06 12:14 | 39.72701 | 34.06090 | 30377 ft | 506 kts | 107° |
| 2026-05-06 12:14 | 39.71490 | 34.10321 | 30839 ft | 506 kts | 107° |
| 2026-05-06 12:15 | 39.70271 | 34.14581 | 31482 ft | 502 kts | 107° |
| 2026-05-06 12:15 | 39.69061 | 34.18808 | 32027 ft | 499 kts | 107° |
| 2026-05-06 12:15 | 39.67874 | 34.22956 | 32591 ft | 496 kts | 107° |
| 2026-05-06 12:15 | 39.66677 | 34.27139 | 33002 ft | 495 kts | 107° |
| 2026-05-06 12:16 | 39.64287 | 34.35484 | 33059 ft | 488 kts | 107° |
| 2026-05-06 12:16 | 39.61921 | 34.43718 | 33069 ft | 490 kts | 108° |
| 2026-05-06 12:17 | 39.59542 | 34.51967 | 33061 ft | 490 kts | 108° |
| 2026-05-06 12:17 | 39.57167 | 34.60183 | 33072 ft | 490 kts | 108° |
| 2026-05-06 12:18 | 39.54769 | 34.68454 | 33063 ft | 491 kts | 108° |
| 2026-05-06 12:18 | 39.52365 | 34.76714 | 33064 ft | 488 kts | 109° |
| 2026-05-06 12:19 | 39.49969 | 34.84922 | 33063 ft | 492 kts | 109° |
| 2026-05-06 12:19 | 39.47541 | 34.93204 | 33073 ft | 489 kts | 109° |
| 2026-05-06 12:20 | 39.45139 | 35.01378 | 33077 ft | 489 kts | 109° |
| 2026-05-06 12:20 | 39.42713 | 35.09605 | 33078 ft | 489 kts | 109° |
| 2026-05-06 12:21 | 39.40290 | 35.17802 | 33066 ft | 489 kts | 109° |
| 2026-05-06 12:21 | 39.37884 | 35.26024 | 33066 ft | 491 kts | 109° |
| 2026-05-06 12:22 | 39.35518 | 35.34204 | 33050 ft | 490 kts | 109° |
| 2026-05-06 12:22 | 39.33140 | 35.42424 | 33060 ft | 490 kts | 109° |
| 2026-05-06 12:23 | 39.30739 | 35.50688 | 33065 ft | 491 kts | 109° |
| 2026-05-06 12:23 | 39.28350 | 35.58873 | 33052 ft | 489 kts | 109° |
| 2026-05-06 12:24 | 39.25934 | 35.67111 | 33036 ft | 491 kts | 110° |
| 2026-05-06 12:24 | 39.23515 | 35.75331 | 33015 ft | 489 kts | 110° |
| 2026-05-06 12:25 | 39.21098 | 35.83515 | 33036 ft | 489 kts | 111° |
| 2026-05-06 12:25 | 39.18567 | 35.91615 | 33053 ft | 487 kts | 115° |
| 2026-05-06 12:26 | 39.16872 | 35.95397 | 33066 ft | 488 kts | 127° |
| 2026-05-06 12:26 | 39.14620 | 35.98622 | 33064 ft | 487 kts | 140° |
| 2026-05-06 12:26 | 39.11919 | 36.01212 | 33075 ft | 483 kts | 151° |
| 2026-05-06 12:26 | 39.08972 | 36.03222 | 33075 ft | 479 kts | 158° |
| 2026-05-06 12:27 | 39.02729 | 36.05900 | 33081 ft | 474 kts | 171° |
| 2026-05-06 12:27 | 38.96209 | 36.07353 | 33071 ft | 470 kts | 175° |
| 2026-05-06 12:28 | 38.89727 | 36.08525 | 33073 ft | 471 kts | 176° |
| 2026-05-06 12:28 | 38.83214 | 36.09734 | 33065 ft | 470 kts | 175° |
| 2026-05-06 12:29 | 38.76739 | 36.11002 | 33069 ft | 473 kts | 175° |
| 2026-05-06 12:29 | 38.70213 | 36.12326 | 33069 ft | 472 kts | 175° |
| 2026-05-06 12:30 | 38.63751 | 36.13662 | 33080 ft | 471 kts | 175° |
| 2026-05-06 12:30 | 38.57251 | 36.15012 | 33068 ft | 470 kts | 175° |
| 2026-05-06 12:31 | 38.50808 | 36.16349 | 33061 ft | 470 kts | 175° |
| 2026-05-06 12:31 | 38.44321 | 36.17691 | 33069 ft | 472 kts | 175° |
| 2026-05-06 12:32 | 38.37838 | 36.19030 | 33073 ft | 472 kts | 175° |
| 2026-05-06 12:32 | 38.31351 | 36.20369 | 33086 ft | 473 kts | 175° |
| 2026-05-06 12:33 | 38.24882 | 36.21705 | 33071 ft | 471 kts | 175° |
| 2026-05-06 12:33 | 38.18418 | 36.23035 | 33075 ft | 472 kts | 175° |
| 2026-05-06 12:34 | 38.11964 | 36.24361 | 33084 ft | 470 kts | 176° |
| 2026-05-06 12:34 | 38.05466 | 36.25690 | 33082 ft | 470 kts | 176° |
| 2026-05-06 12:35 | 37.99013 | 36.27008 | 33077 ft | 471 kts | 176° |
| 2026-05-06 12:35 | 37.92522 | 36.28331 | 33075 ft | 472 kts | 176° |
| 2026-05-06 12:36 | 37.86066 | 36.29649 | 33074 ft | 469 kts | 176° |
| 2026-05-06 12:36 | 37.79623 | 36.30960 | 33073 ft | 468 kts | 176° |
| 2026-05-06 12:37 | 37.73193 | 36.32265 | 33070 ft | 469 kts | 176° |
| 2026-05-06 12:37 | 37.66779 | 36.33565 | 33076 ft | 467 kts | 176° |
| 2026-05-06 12:38 | 37.60371 | 36.34861 | 33056 ft | 469 kts | 175° |
| 2026-05-06 12:38 | 37.53922 | 36.36163 | 33064 ft | 468 kts | 176° |
| 2026-05-06 12:39 | 37.47454 | 36.37467 | 33046 ft | 467 kts | 175° |
| 2026-05-06 12:39 | 37.41070 | 36.38757 | 32751 ft | 459 kts | 176° |
| 2026-05-06 12:40 | 37.37926 | 36.39394 | 32319 ft | 454 kts | 175° |
| 2026-05-06 12:40 | 37.34821 | 36.40020 | 31723 ft | 454 kts | 176° |
| 2026-05-06 12:40 | 37.31697 | 36.40644 | 31003 ft | 456 kts | 175° |
| 2026-05-06 12:40 | 37.28579 | 36.41264 | 30207 ft | 460 kts | 175° |
| 2026-05-06 12:41 | 37.25411 | 36.41894 | 29326 ft | 463 kts | 175° |
| 2026-05-06 12:41 | 37.22238 | 36.42524 | 28435 ft | 466 kts | 175° |
| 2026-05-06 12:41 | 37.19004 | 36.43167 | 27518 ft | 469 kts | 174° |
| 2026-05-06 12:41 | 37.15804 | 36.43806 | 26768 ft | 468 kts | 174° |
| 2026-05-06 12:42 | 37.12602 | 36.44447 | 26053 ft | 465 kts | 174° |
| 2026-05-06 12:42 | 37.09411 | 36.45086 | 25347 ft | 462 kts | 174° |
| 2026-05-06 12:42 | 37.06281 | 36.45713 | 24650 ft | 459 kts | 174° |
| 2026-05-06 12:42 | 37.03146 | 36.46339 | 23953 ft | 456 kts | 173° |
| 2026-05-06 12:43 | 37.00020 | 36.46947 | 23251 ft | 452 kts | 174° |
| 2026-05-06 12:43 | 36.96915 | 36.47359 | 22565 ft | 446 kts | 179° |
| 2026-05-06 12:43 | 36.93868 | 36.47295 | 21886 ft | 438 kts | 188° |
| 2026-05-06 12:43 | 36.90873 | 36.46731 | 21192 ft | 432 kts | 193° |
| 2026-05-06 12:44 | 36.87957 | 36.45920 | 20491 ft | 428 kts | 196° |
| 2026-05-06 12:44 | 36.85100 | 36.44999 | 19794 ft | 423 kts | 197° |
| 2026-05-06 12:44 | 36.82272 | 36.44036 | 19095 ft | 419 kts | 198° |
| 2026-05-06 12:44 | 36.79478 | 36.43071 | 18396 ft | 415 kts | 198° |
| 2026-05-06 12:45 | 36.76714 | 36.42117 | 17729 ft | 411 kts | 197° |
| 2026-05-06 12:45 | 36.73967 | 36.41180 | 17044 ft | 407 kts | 197° |
| 2026-05-06 12:45 | 36.68562 | 36.39383 | 15694 ft | 400 kts | 197° |
| 2026-05-06 12:46 | 36.65900 | 36.38517 | 14999 ft | 387 kts | 196° |
| 2026-05-06 12:46 | 36.63374 | 36.37705 | 14393 ft | 368 kts | 196° |
| 2026-05-06 12:46 | 36.60963 | 36.36932 | 13972 ft | 352 kts | 196° |
| 2026-05-06 12:46 | 36.58606 | 36.36177 | 13606 ft | 342 kts | 196° |
| 2026-05-06 12:47 | 36.56340 | 36.35449 | 13454 ft | 328 kts | 196° |
| 2026-05-06 12:47 | 36.54200 | 36.34762 | 13311 ft | 314 kts | 196° |
| 2026-05-06 12:47 | 36.52122 | 36.34095 | 13187 ft | 301 kts | 196° |
| 2026-05-06 12:47 | 36.50125 | 36.33454 | 13031 ft | 289 kts | 196° |
| 2026-05-06 12:48 | 36.48233 | 36.32847 | 12877 ft | 277 kts | 196° |
| 2026-05-06 12:48 | 36.46397 | 36.32258 | 12767 ft | 266 kts | 196° |
| 2026-05-06 12:48 | 36.44633 | 36.31693 | 12655 ft | 255 kts | 196° |
| 2026-05-06 12:48 | 36.42961 | 36.31157 | 12547 ft | 245 kts | 196° |
| 2026-05-06 12:49 | 36.41334 | 36.30635 | 12433 ft | 235 kts | 196° |
| 2026-05-06 12:49 | 36.39772 | 36.30135 | 12322 ft | 226 kts | 196° |
| 2026-05-06 12:49 | 36.38273 | 36.29655 | 12209 ft | 223 kts | 197° |
| 2026-05-06 12:49 | 36.36724 | 36.29140 | 12154 ft | 239 kts | 200° |
| 2026-05-06 12:50 | 36.35198 | 36.28303 | 12126 ft | 242 kts | 212° |
| 2026-05-06 12:50 | 36.33770 | 36.27166 | 11694 ft | 250 kts | 216° |
| 2026-05-06 12:50 | 36.32304 | 36.25918 | 11041 ft | 262 kts | 216° |
| 2026-05-06 12:50 | 36.30776 | 36.24653 | 10525 ft | 260 kts | 214° |
| 2026-05-06 12:51 | 36.29303 | 36.23473 | 10465 ft | 241 kts | 214° |
| 2026-05-06 12:51 | 36.27911 | 36.22372 | 10208 ft | 240 kts | 214° |
| 2026-05-06 12:51 | 36.26518 | 36.21269 | 9931 ft | 234 kts | 214° |
| 2026-05-06 12:51 | 36.25142 | 36.20177 | 9669 ft | 234 kts | 213° |
| 2026-05-06 12:52 | 36.23771 | 36.19089 | 9402 ft | 233 kts | 213° |
| 2026-05-06 12:52 | 36.22410 | 36.18009 | 9137 ft | 231 kts | 213° |
| 2026-05-06 12:52 | 36.21086 | 36.16959 | 8905 ft | 224 kts | 213° |
| 2026-05-06 12:52 | 36.19796 | 36.15936 | 8659 ft | 218 kts | 213° |
| 2026-05-06 12:53 | 36.18515 | 36.14921 | 8366 ft | 214 kts | 214° |
| 2026-05-06 12:53 | 36.17282 | 36.13943 | 8139 ft | 207 kts | 214° |
| 2026-05-06 12:53 | 36.16089 | 36.12997 | 7883 ft | 206 kts | 214° |
| 2026-05-06 12:53 | 36.14884 | 36.12035 | 7551 ft | 203 kts | 216° |
| 2026-05-06 12:54 | 36.13977 | 36.10793 | 7342 ft | 193 kts | 249° |
| 2026-05-06 12:54 | 36.13762 | 36.09193 | 7173 ft | 189 kts | 274° |
| 2026-05-06 12:54 | 36.14017 | 36.07586 | 6974 ft | 191 kts | 290° |
| 2026-05-06 12:54 | 36.14732 | 36.06213 | 6778 ft | 192 kts | 318° |
| 2026-05-06 12:55 | 36.15878 | 36.05428 | 6541 ft | 187 kts | 341° |
| 2026-05-06 12:55 | 36.17176 | 36.05191 | 6118 ft | 193 kts | 3° |
| 2026-05-06 12:55 | 36.18433 | 36.05671 | 5751 ft | 194 kts | 31° |
| 2026-05-06 12:55 | 36.19413 | 36.06789 | 5459 ft | 190 kts | 56° |
| 2026-05-06 12:56 | 36.19982 | 36.08287 | 4911 ft | 201 kts | 69° |
| 2026-05-06 12:56 | 36.20671 | 36.09808 | 4481 ft | 201 kts | 49° |
| 2026-05-06 12:56 | 36.21620 | 36.11005 | 4341 ft | 187 kts | 43° |
| 2026-05-06 12:56 | 36.22553 | 36.12097 | 4228 ft | 183 kts | 43° |
| 2026-05-06 12:57 | 36.23479 | 36.13209 | 4034 ft | 186 kts | 44° |
| 2026-05-06 12:57 | 36.24386 | 36.14314 | 3776 ft | 183 kts | 44° |
| 2026-05-06 12:57 | 36.25308 | 36.15419 | 3481 ft | 184 kts | 44° |
| 2026-05-06 12:57 | 36.26225 | 36.16524 | 3125 ft | 186 kts | 44° |
| 2026-05-06 12:58 | 36.27117 | 36.17614 | 2838 ft | 176 kts | 44° |
| 2026-05-06 12:58 | 36.27968 | 36.18660 | 2570 ft | 169 kts | 43° |
| 2026-05-06 12:58 | 36.28789 | 36.19673 | 2353 ft | 161 kts | 43° |
| 2026-05-06 12:58 | 36.29576 | 36.20641 | 2068 ft | 155 kts | 43° |
| 2026-05-06 12:59 | 36.30330 | 36.21563 | 1834 ft | 153 kts | 43° |
| 2026-05-06 12:59 | 36.31077 | 36.22479 | 1630 ft | 149 kts | 41° |
| 2026-05-06 12:59 | 36.31810 | 36.23396 | 1391 ft | 150 kts | 45° |
| 2026-05-06 12:59 | 36.32500 | 36.24354 | 1144 ft | 150 kts | 44° |
| 2026-05-06 13:00 | 36.33224 | 36.25267 | 890 ft | 145 kts | 43° |
| 2026-05-06 13:00 | 36.33957 | 36.26123 | 640 ft | 141 kts | 38° |
| 2026-05-06 13:00 | 36.34678 | 36.26939 | 451 ft | 139 kts | 39° |
| 2026-05-06 13:00 | 36.35377 | 36.27748 | 288 ft | 138 kts | 40° |
| 2026-05-06 13:01 | 36.35977 | 36.28426 | 286 ft | 79 kts | 43° |
| 2026-05-06 13:01 | 36.36179 | 36.28657 | 286 ft | 6 kts | 43° |
| 2026-05-06 13:01 | 36.36180 | 36.28658 | 286 ft | 0 kts | 43° |
| 2026-05-06 13:01 | 36.36181 | 36.28665 | 286 ft | 1 kts | 105° |
| 2026-05-06 13:02 | 36.36144 | 36.28654 | 286 ft | 10 kts | 216° |
| 2026-05-06 13:02 | 36.36079 | 36.28551 | 286 ft | 17 kts | 258° |
| 2026-05-06 13:02 | 36.36095 | 36.28488 | 286 ft | 0 kts | 309° |
| 2026-05-06 13:03 | 36.36102 | 36.28478 | 286 ft | 4 kts | 309° |
| 2026-05-06 13:03 | 36.36137 | 36.28426 | 286 ft | 11 kts | 310° |
| 2026-05-06 13:04 | 36.36195 | 36.28343 | 286 ft | 13 kts | 312° |
| 2026-05-06 13:04 | 36.36244 | 36.28319 | 286 ft | 1 kts | 344° |
| 2026-05-06 13:04 | 36.36261 | 36.28301 | 287 ft | 4 kts | 300° |
| 2026-05-06 13:04 | 36.36268 | 36.28272 | 287 ft | 0 kts | 278° |